Pagina principală
METAR-TAF:

METAR-TAF

Aeroporturi :

Oklahoma City, Oklahoma, Statele Unite ale Americii

Latitudine: 35-32-28N, longitudine: 097-38-48W, elevație: 396 m

Observații meteo curente

Raportul a fost făcut în urmă cu 16 de minute, la 15:53 UTC
Vânt 12 kt de la Sud
Temperatură 27°C
Umiditate 58%
Presiune 1011 hPa
Vizibilitate: 16.1 km
Cer senin

METAR: KPWA 181553Z 19012KT 10SM CLR 27/18 A2985 RMK AO2 SLP095 T02720178

Ora: 11:09 (16:09 UTC)


TAF: lipsă

Observații și prognoze meteo pentru peste 4.000 de aeroporturi (rapoarte METAR și TAF).

Stațiile disponibile sunt reprezentate pe hartă prin puncte galbene și roșii.

Țineți indicatorul mouse-ului pe punctul dorit pentru a vedea denumirea stației.

Apoi, faceți clic pentru a vedea observațiile și prognozele meteorologice.

Pentru a schimba harta: Pentru mărire, faceți clic pe butoanele verzi cu cruce neagră; pentru micșorare, pe butonul verde cu o liniuță; pentru hărți învecinate, pe săgețile verzi.


METAR-TAF: